createdAt,value
2019-02-25T00:00:50.845Z,5.30
2019-02-25T00:03:18.067Z,5.50
2019-02-25T00:05:45.311Z,5.60
2019-02-25T00:08:12.561Z,5.50
2019-02-25T00:10:39.817Z,5.50
2019-02-25T00:13:07.066Z,5.20
2019-02-25T00:15:34.430Z,5.10
2019-02-25T00:18:01.646Z,5.00
2019-02-25T00:20:28.885Z,4.40
2019-02-25T00:22:56.106Z,4.50
2019-02-25T00:25:23.341Z,4.60
2019-02-25T00:27:50.586Z,4.70
2019-02-25T00:30:17.829Z,4.90
2019-02-25T00:32:45.046Z,5.10
2019-02-25T00:35:12.286Z,5.10
2019-02-25T00:37:39.526Z,5.20
2019-02-25T00:40:06.982Z,5.20
2019-02-25T00:42:34.310Z,5.30
2019-02-25T00:45:01.554Z,5.30
2019-02-25T00:47:28.761Z,5.40
2019-02-25T00:49:56.050Z,5.40
2019-02-25T00:52:23.282Z,5.20
2019-02-25T00:54:50.525Z,4.70
2019-02-25T00:57:17.781Z,4.10
2019-02-25T00:59:45.019Z,3.90
2019-02-25T01:02:12.339Z,4.00
2019-02-25T01:04:39.585Z,4.00
2019-02-25T01:07:07.014Z,4.00
2019-02-25T01:09:34.245Z,4.20
2019-02-25T01:12:01.490Z,4.20
2019-02-25T01:14:28.726Z,4.00
2019-02-25T01:16:55.942Z,4.00
2019-02-25T01:19:23.190Z,4.20
2019-02-25T01:21:50.406Z,4.20
2019-02-25T01:24:17.663Z,4.40
2019-02-25T01:26:44.912Z,4.50
2019-02-25T01:29:12.153Z,4.70
2019-02-25T01:31:39.393Z,4.70
2019-02-25T01:34:06.749Z,5.00
2019-02-25T01:36:34.078Z,5.00
2019-02-25T01:39:01.313Z,5.30
2019-02-25T01:41:28.554Z,5.40
2019-02-25T01:43:56.730Z,5.50
2019-02-25T01:46:24.003Z,5.60
2019-02-25T01:48:51.322Z,5.60
2019-02-25T01:51:18.562Z,5.50
2019-02-25T01:53:45.999Z,5.60
2019-02-25T01:56:13.218Z,5.70
2019-02-25T01:58:40.439Z,5.80
2019-02-25T02:01:07.653Z,5.80
2019-02-25T02:03:34.870Z,5.90
2019-02-25T02:06:02.107Z,5.90
2019-02-25T02:08:29.334Z,6.00
2019-02-25T02:10:56.561Z,6.00
2019-02-25T02:13:23.778Z,5.80
2019-02-25T02:15:51.105Z,5.70
2019-02-25T02:18:19.149Z,5.20
2019-02-25T02:20:46.394Z,5.10
2019-02-25T02:23:13.634Z,5.20
2019-02-25T02:25:40.955Z,5.20
2019-02-25T02:28:08.174Z,5.40
2019-02-25T02:30:35.390Z,5.40
2019-02-25T02:33:02.839Z,5.50
2019-02-25T02:35:30.157Z,5.50
2019-02-25T02:37:57.379Z,5.50
2019-02-25T02:40:24.699Z,5.60
2019-02-25T02:42:53.490Z,5.40
2019-02-25T02:45:31.074Z,5.30
2019-02-25T02:48:07.338Z,5.50
2019-02-25T02:50:34.568Z,5.50
2019-02-25T02:53:01.790Z,5.40
2019-02-25T02:55:29.010Z,5.40
2019-02-25T02:57:56.524Z,5.60
2019-02-25T03:00:23.752Z,5.60
2019-02-25T03:02:51.076Z,5.70
2019-02-25T03:05:18.429Z,5.70
2019-02-25T03:07:45.671Z,5.50
2019-02-25T03:10:15.259Z,5.40
2019-02-25T03:12:42.569Z,5.40
2019-02-25T03:15:12.625Z,5.30
2019-02-25T03:17:39.846Z,5.20
2019-02-25T03:20:07.855Z,5.10
2019-02-25T03:22:35.093Z,5.10
2019-02-25T03:25:02.654Z,5.20
2019-02-25T03:27:29.870Z,5.20
2019-02-25T03:29:57.119Z,5.20
2019-02-25T03:32:24.340Z,5.10
2019-02-25T03:34:51.582Z,4.80
2019-02-25T03:37:18.831Z,4.70
2019-02-25T03:39:46.081Z,4.70
2019-02-25T03:42:13.296Z,4.60
2019-02-25T03:44:40.643Z,4.50
2019-02-25T03:47:08.849Z,4.40
2019-02-25T03:49:36.093Z,4.40
2019-02-25T03:52:03.327Z,4.30
2019-02-25T03:54:30.557Z,4.20
2019-02-25T03:56:57.776Z,4.10
2019-02-25T03:59:25.035Z,4.10
2019-02-25T04:01:52.262Z,4.00
2019-02-25T04:04:19.530Z,4.00
2019-02-25T04:06:46.778Z,3.90
2019-02-25T04:09:13.994Z,3.90
2019-02-25T04:11:41.205Z,3.90
2019-02-25T04:14:08.433Z,3.90
2019-02-25T04:16:35.757Z,3.70
2019-02-25T04:19:02.999Z,3.60
2019-02-25T04:21:30.227Z,3.60
2019-02-25T04:23:57.467Z,3.80
2019-02-25T04:26:24.686Z,3.80
2019-02-25T04:28:51.920Z,3.70
2019-02-25T04:31:19.255Z,3.60
2019-02-25T04:33:46.493Z,3.40
2019-02-25T04:36:13.739Z,3.40
2019-02-25T04:38:41.078Z,3.50
2019-02-25T04:41:08.317Z,3.60
2019-02-25T04:43:35.735Z,3.60
2019-02-25T04:46:02.969Z,3.60
2019-02-25T04:48:31.154Z,3.70
2019-02-25T04:50:58.372Z,3.70
2019-02-25T04:53:25.602Z,3.60
2019-02-25T04:55:52.806Z,3.70
2019-02-25T04:58:20.044Z,3.80
2019-02-25T05:00:47.276Z,3.80
2019-02-25T05:03:14.510Z,3.70
2019-02-25T05:05:41.767Z,3.60
2019-02-25T05:08:09.113Z,3.80
2019-02-25T05:10:36.326Z,3.90
2019-02-25T05:13:04.946Z,4.00
2019-02-25T05:15:33.493Z,3.70
2019-02-25T05:18:00.738Z,3.70
2019-02-25T05:20:27.974Z,3.80
2019-02-25T05:22:55.369Z,3.80
2019-02-25T05:25:22.567Z,3.60
2019-02-25T05:27:49.798Z,3.80
2019-02-25T05:30:17.027Z,4.00
2019-02-25T05:32:44.277Z,4.00
2019-02-25T05:35:12.231Z,4.00
2019-02-25T05:37:39.594Z,4.20
2019-02-25T05:40:10.098Z,4.40
2019-02-25T05:42:37.342Z,4.40
2019-02-25T05:45:04.627Z,4.40
2019-02-25T05:47:31.875Z,4.40
2019-02-25T05:50:00.044Z,4.40
2019-02-25T05:52:27.283Z,4.40
2019-02-25T05:54:54.489Z,4.40
2019-02-25T05:57:22.154Z,4.50
2019-02-25T05:59:49.417Z,4.40
2019-02-25T06:02:16.766Z,4.50
2019-02-25T06:04:44.005Z,4.40
2019-02-25T06:07:11.252Z,4.40
2019-02-25T06:09:38.462Z,4.30
2019-02-25T06:12:05.693Z,4.40
2019-02-25T06:14:32.925Z,4.40
2019-02-25T06:17:00.177Z,4.40
2019-02-25T06:19:27.461Z,4.30
2019-02-25T06:21:54.858Z,4.60
2019-02-25T06:24:22.062Z,4.60
2019-02-25T06:26:49.285Z,4.80
2019-02-25T06:29:16.514Z,4.80
2019-02-25T06:31:43.761Z,4.90
2019-02-25T06:34:11.043Z,5.00
2019-02-25T06:36:38.284Z,4.90
2019-02-25T06:39:05.878Z,4.90
2019-02-25T06:41:33.114Z,4.90
2019-02-25T06:44:00.342Z,5.00
2019-02-25T06:46:27.679Z,5.00
2019-02-25T06:48:54.917Z,5.00
2019-02-25T06:51:23.053Z,5.10
2019-02-25T06:53:50.284Z,5.10
2019-02-25T06:56:17.514Z,5.20
2019-02-25T06:58:44.737Z,5.20
2019-02-25T07:01:11.950Z,5.10
2019-02-25T07:03:39.178Z,5.10
2019-02-25T07:06:13.456Z,5.20
2019-02-25T07:08:52.969Z,5.30
2019-02-25T07:11:34.985Z,5.50
2019-02-25T07:14:21.844Z,5.50
2019-02-25T07:16:57.303Z,5.40
2019-02-25T07:19:35.633Z,5.20
2019-02-25T07:22:19.518Z,5.10
2019-02-25T07:24:59.626Z,5.10
2019-02-25T07:27:43.794Z,5.30
2019-02-25T07:30:18.510Z,5.40
2019-02-25T07:33:17.034Z,5.40
2019-02-25T07:36:00.661Z,5.50
2019-02-25T07:38:39.458Z,5.60
2019-02-25T07:41:20.827Z,5.40
2019-02-25T07:44:10.119Z,5.40
2019-02-25T07:47:05.926Z,5.30
2019-02-25T07:50:04.867Z,5.30
2019-02-25T07:52:51.868Z,5.40
2019-02-25T07:55:37.398Z,5.60
2019-02-25T07:58:21.894Z,5.80
2019-02-25T08:01:11.382Z,6.10
2019-02-25T08:03:53.143Z,6.70
2019-02-25T08:06:32.682Z,7.20
2019-02-25T08:09:13.950Z,7.70
2019-02-25T08:12:03.424Z,8.10
2019-02-25T08:14:56.159Z,9.00
2019-02-25T08:17:57.962Z,9.40
2019-02-25T08:20:32.761Z,9.40
2019-02-25T08:23:12.110Z,9.10
2019-02-25T08:26:04.746Z,8.60
2019-02-25T08:28:41.330Z,8.30
2019-02-25T08:31:33.947Z,8.10
2019-02-25T08:34:18.449Z,8.10
2019-02-25T08:37:14.334Z,8.00
2019-02-25T08:39:52.875Z,7.90
2019-02-25T08:42:40.586Z,7.70
2019-02-25T08:45:19.522Z,7.50
2019-02-25T08:47:53.222Z,7.50
2019-02-25T08:50:20.453Z,7.40
2019-02-25T08:52:48.736Z,7.30
2019-02-25T08:55:15.971Z,7.40
2019-02-25T08:57:43.205Z,7.60
2019-02-25T09:00:11.737Z,7.80
2019-02-25T09:02:38.962Z,8.00
2019-02-25T09:05:08.409Z,8.20
2019-02-25T09:07:35.609Z,8.20
2019-02-25T09:10:03.314Z,8.20
2019-02-25T09:12:30.541Z,8.20
2019-02-25T09:14:57.766Z,8.50
2019-02-25T09:17:25.080Z,8.90
2019-02-25T09:19:52.445Z,9.20
2019-02-25T09:22:19.674Z,9.50
2019-02-25T09:24:46.914Z,9.60
2019-02-25T09:27:14.346Z,9.90
2019-02-25T09:29:41.610Z,10.20
2019-02-25T09:32:08.911Z,10.40
2019-02-25T09:34:36.149Z,10.40
2019-02-25T09:37:03.370Z,10.50
2019-02-25T09:39:30.590Z,10.40
2019-02-25T09:41:57.825Z,10.40
2019-02-25T09:44:25.041Z,10.40
2019-02-25T09:46:52.299Z,10.30
2019-02-25T09:49:19.529Z,10.20
2019-02-25T09:51:46.767Z,10.20
2019-02-25T09:54:14.089Z,10.20
2019-02-25T09:56:41.330Z,10.90
2019-02-25T09:59:08.543Z,11.50
2019-02-25T10:01:35.769Z,11.90
2019-02-25T10:04:02.999Z,12.10
2019-02-25T10:06:30.343Z,12.10
2019-02-25T10:08:57.574Z,11.90
2019-02-25T10:11:24.808Z,11.80
2019-02-25T10:13:52.038Z,11.60
2019-02-25T10:16:19.443Z,12.00
2019-02-25T10:18:46.766Z,11.90
2019-02-25T10:21:14.414Z,11.80
2019-02-25T10:23:44.554Z,12.00
2019-02-25T10:26:11.796Z,11.80
2019-02-25T10:28:39.113Z,12.10
2019-02-25T10:31:06.341Z,12.60
2019-02-25T10:33:33.626Z,12.90
2019-02-25T10:36:01.081Z,13.20
2019-02-25T10:38:28.305Z,13.30
2019-02-25T10:40:55.734Z,13.30
2019-02-25T10:43:23.026Z,13.10
2019-02-25T10:45:50.366Z,12.80
2019-02-25T10:48:19.422Z,12.70
2019-02-25T10:50:55.549Z,12.50
2019-02-25T10:53:17.785Z,12.20
2019-02-25T10:56:03.385Z,12.40
2019-02-25T10:58:31.230Z,12.70
2019-02-25T11:00:59.853Z,12.90
2019-02-25T11:03:27.081Z,13.20
2019-02-25T11:05:56.210Z,13.30
2019-02-25T11:08:23.618Z,13.20
2019-02-25T11:11:04.219Z,13.10
2019-02-25T11:13:34.125Z,13.30
2019-02-25T11:16:01.386Z,13.70
2019-02-25T11:18:28.750Z,14.10
2019-02-25T11:20:56.131Z,14.40
2019-02-25T11:23:30.519Z,14.40
2019-02-25T11:25:58.413Z,14.70
2019-02-25T11:28:26.974Z,15.10
2019-02-25T11:30:54.281Z,15.20
2019-02-25T11:33:22.746Z,14.60
2019-02-25T11:35:50.802Z,14.50
2019-02-25T11:38:18.030Z,14.80
2019-02-25T11:40:45.255Z,15.00
2019-02-25T11:43:13.371Z,14.80
2019-02-25T11:45:41.676Z,14.70
2019-02-25T11:48:09.120Z,14.70
2019-02-25T11:50:36.527Z,15.00
2019-02-25T11:53:04.110Z,15.10
2019-02-25T11:55:31.381Z,15.60
2019-02-25T11:57:58.798Z,15.70
2019-02-25T12:00:26.128Z,15.40
2019-02-25T12:02:53.474Z,15.20
2019-02-25T12:05:20.686Z,14.80
2019-02-25T12:07:48.065Z,14.30
2019-02-25T12:10:15.313Z,14.20
2019-02-25T12:12:42.782Z,14.00
2019-02-25T12:15:11.855Z,13.90
2019-02-25T12:17:39.121Z,14.10
2019-02-25T12:20:07.526Z,14.10
2019-02-25T12:22:34.746Z,14.30
2019-02-25T12:25:02.002Z,14.30
2019-02-25T12:27:29.238Z,14.20
2019-02-25T12:29:56.501Z,14.00
2019-02-25T12:32:23.742Z,13.80
2019-02-25T12:34:50.961Z,13.60
2019-02-25T12:37:18.184Z,13.50
2019-02-25T12:39:45.412Z,13.50
2019-02-25T12:42:12.922Z,13.50
2019-02-25T12:44:40.378Z,13.50
2019-02-25T12:47:07.633Z,13.70
2019-02-25T12:49:34.854Z,13.90
2019-02-25T12:52:02.078Z,13.90
2019-02-25T12:54:29.318Z,13.60
2019-02-25T12:56:56.566Z,13.70
2019-02-25T12:59:24.662Z,13.90
2019-02-25T13:01:51.885Z,14.00
2019-02-25T13:04:19.207Z,14.20
2019-02-25T13:06:46.435Z,14.10
2019-02-25T13:09:14.615Z,14.10
2019-02-25T13:11:41.910Z,14.10
2019-02-25T13:14:09.542Z,14.10
2019-02-25T13:16:36.866Z,14.40
2019-02-25T13:19:04.078Z,14.50
2019-02-25T13:21:31.402Z,14.60
2019-02-25T13:23:59.541Z,14.60
2019-02-25T13:26:29.279Z,14.70
2019-02-25T13:28:57.221Z,14.50
2019-02-25T13:31:24.548Z,14.40
2019-02-25T13:33:51.857Z,14.50
2019-02-25T13:36:19.334Z,14.50
2019-02-25T13:38:46.681Z,14.50
2019-02-25T13:41:14.036Z,14.40
2019-02-25T13:43:41.382Z,14.40
2019-02-25T13:46:08.888Z,14.50
2019-02-25T13:48:36.219Z,14.60
2019-02-25T13:51:03.578Z,14.70
2019-02-25T13:53:30.956Z,14.80
2019-02-25T13:55:58.318Z,14.80
2019-02-25T13:58:25.668Z,14.70
2019-02-25T14:00:53.958Z,14.80
2019-02-25T14:03:21.298Z,14.90
2019-02-25T14:05:48.869Z,14.90
2019-02-25T14:08:16.439Z,15.00
2019-02-25T14:10:44.250Z,15.00
2019-02-25T14:13:11.681Z,14.90
2019-02-25T14:15:39.106Z,14.80
2019-02-25T14:18:06.433Z,14.70
2019-02-25T14:20:33.874Z,14.70
2019-02-25T14:23:01.201Z,14.60
2019-02-25T14:25:28.723Z,14.60
2019-02-25T14:27:56.569Z,14.50
2019-02-25T14:30:24.227Z,14.60
2019-02-25T14:32:53.416Z,14.70
2019-02-25T14:35:22.966Z,14.60
2019-02-25T14:37:50.597Z,14.30
2019-02-25T14:40:19.104Z,14.20
2019-02-25T14:42:49.093Z,14.20
2019-02-25T14:45:19.630Z,14.20
2019-02-25T14:47:46.963Z,14.30
2019-02-25T14:50:15.674Z,14.30
2019-02-25T14:52:43.442Z,14.40
2019-02-25T14:55:11.391Z,14.40
2019-02-25T14:57:40.848Z,14.20
2019-02-25T15:00:12.847Z,13.90
2019-02-25T15:02:41.383Z,13.90
2019-02-25T15:05:10.842Z,13.90
2019-02-25T15:07:39.132Z,13.90
2019-02-25T15:10:08.478Z,14.10
2019-02-25T15:12:37.764Z,14.20
2019-02-25T15:15:08.839Z,14.10
2019-02-25T15:17:36.219Z,14.20
2019-02-25T15:20:04.750Z,14.20
2019-02-25T15:22:33.699Z,14.10
2019-02-25T15:25:01.090Z,13.90
2019-02-25T15:27:28.426Z,13.80
2019-02-25T15:29:55.774Z,13.70
2019-02-25T15:32:23.110Z,13.70
2019-02-25T15:34:52.443Z,13.60
2019-02-25T15:37:19.898Z,13.60
2019-02-25T15:39:47.310Z,13.70
2019-02-25T15:42:15.543Z,13.60
2019-02-25T15:44:44.538Z,13.50
2019-02-25T15:47:13.307Z,13.40
2019-02-25T15:49:41.150Z,13.30
2019-02-25T15:52:10.435Z,13.20
2019-02-25T15:54:39.084Z,13.20
2019-02-25T15:57:06.621Z,13.10
2019-02-25T15:59:34.254Z,13.10
2019-02-25T16:02:03.528Z,12.90
2019-02-25T16:04:31.922Z,12.90
2019-02-25T16:07:03.968Z,12.80
2019-02-25T16:09:31.441Z,12.70
2019-02-25T16:12:00.663Z,12.60
2019-02-25T16:14:29.782Z,12.40
2019-02-25T16:16:57.369Z,12.40
2019-02-25T16:19:24.899Z,12.20
2019-02-25T16:21:52.691Z,12.10
2019-02-25T16:24:21.355Z,12.10
2019-02-25T16:26:48.928Z,12.10
2019-02-25T16:29:16.231Z,12.10
2019-02-25T16:31:43.638Z,12.10
2019-02-25T16:34:12.126Z,12.00
2019-02-25T16:36:40.221Z,12.00
2019-02-25T16:39:08.297Z,11.80
2019-02-25T16:41:38.728Z,11.60
2019-02-25T16:44:06.827Z,11.50
2019-02-25T16:46:38.744Z,11.30
2019-02-25T16:49:04.347Z,11.10
2019-02-25T16:51:35.225Z,11.00
2019-02-25T16:54:01.961Z,10.90
2019-02-25T16:56:29.585Z,10.60
2019-02-25T16:58:58.862Z,10.30
2019-02-25T17:01:28.226Z,10.10
2019-02-25T17:03:55.978Z,10.30
2019-02-25T17:06:25.592Z,10.30
2019-02-25T17:08:55.524Z,10.30
2019-02-25T17:11:22.757Z,10.20
2019-02-25T17:13:50.077Z,10.10
2019-02-25T17:16:18.639Z,10.20
2019-02-25T17:18:46.828Z,10.10
2019-02-25T17:21:14.262Z,9.80
2019-02-25T17:23:41.486Z,9.90
2019-02-25T17:26:10.566Z,9.90
2019-02-25T17:28:38.468Z,9.90
2019-02-25T17:31:06.514Z,10.00
2019-02-25T17:33:35.013Z,9.90
2019-02-25T17:36:02.805Z,10.00
2019-02-25T17:38:30.121Z,9.90
2019-02-25T17:40:59.196Z,9.80
2019-02-25T17:43:26.885Z,9.60
2019-02-25T17:45:56.123Z,9.50
2019-02-25T17:48:23.381Z,9.20
2019-02-25T17:50:50.743Z,9.30
2019-02-25T17:53:18.047Z,9.10
2019-02-25T17:55:45.577Z,9.20
2019-02-25T17:58:13.502Z,9.40
2019-02-25T18:00:42.649Z,9.40
2019-02-25T18:03:09.962Z,9.20
2019-02-25T18:05:38.755Z,9.10
2019-02-25T18:08:10.013Z,9.10
2019-02-25T18:10:37.622Z,8.90
2019-02-25T18:13:06.722Z,8.50
2019-02-25T18:15:34.080Z,8.20
2019-02-25T18:18:01.404Z,8.00
2019-02-25T18:20:28.982Z,7.90
2019-02-25T18:22:56.712Z,8.10
2019-02-25T18:25:24.198Z,8.30
2019-02-25T18:27:51.979Z,8.40
2019-02-25T18:30:21.726Z,8.10
2019-02-25T18:32:50.491Z,8.10
2019-02-25T18:35:20.636Z,8.00
2019-02-25T18:37:48.102Z,7.80
2019-02-25T18:40:18.451Z,7.60
2019-02-25T18:42:45.714Z,7.60
2019-02-25T18:45:15.701Z,7.50
2019-02-25T18:47:42.904Z,7.40
2019-02-25T18:50:15.395Z,7.50
2019-02-25T18:52:41.386Z,7.40
2019-02-25T18:55:11.175Z,7.40
2019-02-25T18:57:38.553Z,7.30
2019-02-25T19:00:07.821Z,7.30
2019-02-25T19:02:35.989Z,7.60
2019-02-25T19:05:06.569Z,7.70
2019-02-25T19:07:33.899Z,7.70
2019-02-25T19:10:01.401Z,8.00
2019-02-25T19:12:28.859Z,8.20
2019-02-25T19:14:57.692Z,8.10
2019-02-25T19:17:27.514Z,8.10
2019-02-25T19:19:55.430Z,8.10
2019-02-25T19:22:23.946Z,8.20
2019-02-25T19:24:51.259Z,8.00
2019-02-25T19:27:18.751Z,7.90
2019-02-25T19:29:49.214Z,7.90
2019-02-25T19:32:15.297Z,7.70
2019-02-25T19:34:42.630Z,7.70
2019-02-25T19:37:12.038Z,7.60
2019-02-25T19:39:39.685Z,7.70
2019-02-25T19:42:08.475Z,7.60
2019-02-25T19:44:36.463Z,7.60
2019-02-25T19:47:04.946Z,7.50
2019-02-25T19:49:33.770Z,7.40
2019-02-25T19:52:01.510Z,7.30
2019-02-25T19:54:29.545Z,7.20
2019-02-25T19:56:57.993Z,7.10
2019-02-25T19:59:26.835Z,7.00
2019-02-25T20:01:54.795Z,6.90
2019-02-25T20:04:22.146Z,6.70
2019-02-25T20:06:51.204Z,6.80
2019-02-25T20:09:19.740Z,6.80
2019-02-25T20:11:47.106Z,6.70
2019-02-25T20:14:16.807Z,6.90
2019-02-25T20:16:43.582Z,6.40
2019-02-25T20:19:10.809Z,6.40
2019-02-25T20:21:38.021Z,6.60
2019-02-25T20:24:05.357Z,6.80
2019-02-25T20:26:32.837Z,6.70
2019-02-25T20:29:01.818Z,7.00
2019-02-25T20:31:29.403Z,7.10
2019-02-25T20:33:57.381Z,7.30
2019-02-25T20:36:26.206Z,7.20
2019-02-25T20:38:55.015Z,7.30
2019-02-25T20:41:22.773Z,7.50
2019-02-25T20:43:53.849Z,7.60
2019-02-25T20:46:23.894Z,7.70
2019-02-25T20:48:50.745Z,7.80
2019-02-25T20:51:18.769Z,7.90
2019-02-25T20:53:48.344Z,8.00
2019-02-25T20:56:15.394Z,8.00
2019-02-25T20:58:44.581Z,7.90
2019-02-25T21:01:13.618Z,7.70
2019-02-25T21:03:43.897Z,7.60
2019-02-25T21:06:12.156Z,7.60
2019-02-25T21:08:39.977Z,7.50
2019-02-25T21:11:10.955Z,7.60
2019-02-25T21:13:38.148Z,7.80
2019-02-25T21:16:08.166Z,7.80
2019-02-25T21:18:35.758Z,7.80
2019-02-25T21:21:05.039Z,7.60
2019-02-25T21:23:32.600Z,7.30
2019-02-25T21:26:02.285Z,7.40
2019-02-25T21:28:30.960Z,7.40
2019-02-25T21:30:58.186Z,7.50
2019-02-25T21:33:27.294Z,7.60
2019-02-25T21:35:54.646Z,7.50
2019-02-25T21:38:23.811Z,7.60
2019-02-25T21:40:52.623Z,7.60
2019-02-25T21:43:21.091Z,7.50
2019-02-25T21:45:50.441Z,7.80
2019-02-25T21:48:21.177Z,7.90
2019-02-25T21:50:47.730Z,8.00
2019-02-25T21:53:16.033Z,8.00
2019-02-25T21:55:44.102Z,8.00
2019-02-25T21:58:11.313Z,8.10
2019-02-25T22:00:40.744Z,8.10
2019-02-25T22:03:10.224Z,7.90
2019-02-25T22:05:36.804Z,7.80
2019-02-25T22:08:04.774Z,7.80
2019-02-25T22:10:34.900Z,7.80
2019-02-25T22:13:06.708Z,7.80
2019-02-25T22:15:31.494Z,7.80
2019-02-25T22:17:58.711Z,7.80
2019-02-25T22:20:25.926Z,7.80
2019-02-25T22:22:56.801Z,7.80
2019-02-25T22:25:22.269Z,7.80
2019-02-25T22:27:49.481Z,7.60
2019-02-25T22:30:16.807Z,7.50
2019-02-25T22:32:44.218Z,7.40
2019-02-25T22:35:14.345Z,7.30
2019-02-25T22:37:44.176Z,7.10
2019-02-25T22:40:12.283Z,7.00
2019-02-25T22:42:39.667Z,7.00
2019-02-25T22:45:09.918Z,7.00
2019-02-25T22:47:37.854Z,7.00
2019-02-25T22:50:06.425Z,7.00
2019-02-25T22:52:37.286Z,7.00
2019-02-25T22:55:07.921Z,7.00
2019-02-25T22:57:33.808Z,6.90
2019-02-25T23:00:05.815Z,7.00
2019-02-25T23:02:30.238Z,7.00
2019-02-25T23:04:57.484Z,7.10
2019-02-25T23:07:24.742Z,7.10
2019-02-25T23:09:52.687Z,7.20
2019-02-25T23:12:22.365Z,7.20
2019-02-25T23:14:50.997Z,7.30
2019-02-25T23:17:18.251Z,7.20
2019-02-25T23:19:45.507Z,7.00
2019-02-25T23:22:12.757Z,7.00
2019-02-25T23:24:42.038Z,7.10
2019-02-25T23:27:09.222Z,7.20
2019-02-25T23:29:36.455Z,7.20
2019-02-25T23:32:03.669Z,7.00
2019-02-25T23:34:31.010Z,6.90
2019-02-25T23:36:58.237Z,6.60
2019-02-25T23:39:25.466Z,6.50
2019-02-25T23:41:52.673Z,6.60
2019-02-25T23:44:22.053Z,6.60
2019-02-25T23:46:49.029Z,6.40
2019-02-25T23:49:16.264Z,6.40
2019-02-25T23:51:44.202Z,6.50
2019-02-25T23:54:16.031Z,6.30
2019-02-25T23:56:43.939Z,6.30
2019-02-25T23:59:14.560Z,6.40
